sensor_id;sensor_type;location;lat;lon;timestamp;P1;durP1;ratioP1;P2;durP2;ratioP2
15402;SDS011;7799;53.478;10.170;2022-12-07T04:01:42;2.30;;;1.83;;
15402;SDS011;7799;53.478;10.170;2022-12-07T04:04:09;1.87;;;1.70;;
15402;SDS011;7799;53.478;10.170;2022-12-07T04:06:35;2.10;;;1.90;;
15402;SDS011;7799;53.478;10.170;2022-12-07T04:09:02;1.83;;;1.70;;
15402;SDS011;7799;53.478;10.170;2022-12-07T04:11:29;1.70;;;1.60;;
15402;SDS011;7799;53.478;10.170;2022-12-07T04:13:56;3.67;;;1.70;;
15402;SDS011;7799;53.478;10.170;2022-12-07T04:17:02;2.03;;;1.70;;
15402;SDS011;7799;53.478;10.170;2022-12-07T04:19:30;1.63;;;1.50;;
15402;SDS011;7799;53.478;10.170;2022-12-07T04:21:59;2.07;;;1.60;;
15402;SDS011;7799;53.478;10.170;2022-12-07T04:24:29;2.27;;;1.90;;
15402;SDS011;7799;53.478;10.170;2022-12-07T04:26:56;1.73;;;1.63;;
15402;SDS011;7799;53.478;10.170;2022-12-07T04:29:23;1.80;;;1.70;;
15402;SDS011;7799;53.478;10.170;2022-12-07T04:31:50;1.80;;;1.50;;
15402;SDS011;7799;53.478;10.170;2022-12-07T04:34:18;1.60;;;1.50;;
15402;SDS011;7799;53.478;10.170;2022-12-07T04:36:46;2.20;;;1.90;;
15402;SDS011;7799;53.478;10.170;2022-12-07T04:39:17;1.57;;;1.47;;
15402;SDS011;7799;53.478;10.170;2022-12-07T04:41:45;1.63;;;1.43;;
15402;SDS011;7799;53.478;10.170;2022-12-07T04:44:12;1.40;;;1.30;;
15402;SDS011;7799;53.478;10.170;2022-12-07T04:46:40;2.27;;;1.30;;
15402;SDS011;7799;53.478;10.170;2022-12-07T04:49:07;1.37;;;1.27;;
15402;SDS011;7799;53.478;10.170;2022-12-07T04:51:35;1.33;;;1.23;;
15402;SDS011;7799;53.478;10.170;2022-12-07T04:54:02;1.23;;;0.90;;
15402;SDS011;7799;53.478;10.170;2022-12-07T04:56:29;1.40;;;1.30;;
15402;SDS011;7799;53.478;10.170;2022-12-07T04:58:56;1.20;;;1.13;;
15402;SDS011;7799;53.478;10.170;2022-12-07T05:01:22;2.33;;;1.30;;
15402;SDS011;7799;53.478;10.170;2022-12-07T05:03:49;1.37;;;1.27;;
15402;SDS011;7799;53.478;10.170;2022-12-07T05:06:16;1.30;;;1.20;;
15402;SDS011;7799;53.478;10.170;2022-12-07T05:08:44;1.30;;;1.17;;
15402;SDS011;7799;53.478;10.170;2022-12-07T05:11:12;1.10;;;1.10;;
15402;SDS011;7799;53.478;10.170;2022-12-07T05:13:59;1.23;;;1.10;;
15402;SDS011;7799;53.478;10.170;2022-12-07T05:16:26;1.03;;;0.93;;
15402;SDS011;7799;53.478;10.170;2022-12-07T05:18:52;0.90;;;0.80;;
15402;SDS011;7799;53.478;10.170;2022-12-07T05:21:19;0.80;;;0.80;;
15402;SDS011;7799;53.478;10.170;2022-12-07T05:23:47;0.80;;;0.80;;
15402;SDS011;7799;53.478;10.170;2022-12-07T05:26:14;0.60;;;0.60;;
15402;SDS011;7799;53.478;10.170;2022-12-07T05:28:41;0.60;;;0.60;;
15402;SDS011;7799;53.478;10.170;2022-12-07T05:31:08;0.60;;;0.60;;
15402;SDS011;7799;53.478;10.170;2022-12-07T05:33:35;0.77;;;0.77;;
15402;SDS011;7799;53.478;10.170;2022-12-07T05:36:02;0.57;;;0.57;;
15402;SDS011;7799;53.478;10.170;2022-12-07T05:38:30;0.60;;;0.60;;
15402;SDS011;7799;53.478;10.170;2022-12-07T05:41:00;0.70;;;0.67;;
15402;SDS011;7799;53.478;10.170;2022-12-07T05:43:28;0.70;;;0.70;;
15402;SDS011;7799;53.478;10.170;2022-12-07T05:45:54;0.70;;;0.70;;
15402;SDS011;7799;53.478;10.170;2022-12-07T05:48:21;0.60;;;0.60;;
15402;SDS011;7799;53.478;10.170;2022-12-07T05:50:48;0.80;;;0.80;;
15402;SDS011;7799;53.478;10.170;2022-12-07T05:53:15;0.70;;;0.70;;
15402;SDS011;7799;53.478;10.170;2022-12-07T05:55:41;0.73;;;0.73;;
15402;SDS011;7799;53.478;10.170;2022-12-07T05:58:10;0.80;;;0.80;;
15402;SDS011;7799;53.478;10.170;2022-12-07T06:00:54;0.90;;;0.90;;
15402;SDS011;7799;53.478;10.170;2022-12-07T06:03:21;0.80;;;0.80;;
15402;SDS011;7799;53.478;10.170;2022-12-07T06:05:48;0.90;;;0.90;;
15402;SDS011;7799;53.478;10.170;2022-12-07T06:08:15;0.77;;;0.77;;
15402;SDS011;7799;53.478;10.170;2022-12-07T06:10:41;0.80;;;0.80;;
15402;SDS011;7799;53.478;10.170;2022-12-07T06:13:09;1.20;;;1.10;;
15402;SDS011;7799;53.478;10.170;2022-12-07T06:15:35;0.90;;;0.90;;
15402;SDS011;7799;53.478;10.170;2022-12-07T06:18:02;0.70;;;0.70;;
15402;SDS011;7799;53.478;10.170;2022-12-07T06:20:29;0.90;;;0.90;;
15402;SDS011;7799;53.478;10.170;2022-12-07T06:22:56;0.90;;;0.90;;
15402;SDS011;7799;53.478;10.170;2022-12-07T06:25:22;0.90;;;0.90;;
15402;SDS011;7799;53.478;10.170;2022-12-07T06:27:49;0.70;;;0.70;;
15402;SDS011;7799;53.478;10.170;2022-12-07T06:30:17;0.87;;;0.87;;
15402;SDS011;7799;53.478;10.170;2022-12-07T06:32:44;0.80;;;0.80;;
15402;SDS011;7799;53.478;10.170;2022-12-07T06:35:11;0.60;;;0.60;;
15402;SDS011;7799;53.478;10.170;2022-12-07T06:37:37;0.63;;;0.63;;
15402;SDS011;7799;53.478;10.170;2022-12-07T06:40:05;0.80;;;0.70;;
15402;SDS011;7799;53.478;10.170;2022-12-07T06:42:32;0.70;;;0.70;;
15402;SDS011;7799;53.478;10.170;2022-12-07T06:44:59;0.73;;;0.73;;
15402;SDS011;7799;53.478;10.170;2022-12-07T06:47:27;0.60;;;0.60;;
15402;SDS011;7799;53.478;10.170;2022-12-07T06:49:54;0.63;;;0.63;;
15402;SDS011;7799;53.478;10.170;2022-12-07T06:52:20;0.87;;;0.87;;
15402;SDS011;7799;53.478;10.170;2022-12-07T06:54:47;0.70;;;0.70;;
15402;SDS011;7799;53.478;10.170;2022-12-07T06:57:14;0.70;;;0.70;;
15402;SDS011;7799;53.478;10.170;2022-12-07T06:59:40;0.80;;;0.80;;
15402;SDS011;7799;53.478;10.170;2022-12-07T07:02:07;0.90;;;0.90;;
15402;SDS011;7799;53.478;10.170;2022-12-07T07:04:36;1.20;;;1.10;;
15402;SDS011;7799;53.478;10.170;2022-12-07T07:07:02;0.73;;;0.73;;
15402;SDS011;7799;53.478;10.170;2022-12-07T07:09:29;0.63;;;0.60;;
15402;SDS011;7799;53.478;10.170;2022-12-07T07:11:56;0.70;;;0.70;;
15402;SDS011;7799;53.478;10.170;2022-12-07T07:14:23;0.80;;;0.80;;
15402;SDS011;7799;53.478;10.170;2022-12-07T07:16:49;0.77;;;0.77;;
15402;SDS011;7799;53.478;10.170;2022-12-07T07:19:16;1.00;;;1.00;;
15402;SDS011;7799;53.478;10.170;2022-12-07T07:21:44;0.70;;;0.70;;
15402;SDS011;7799;53.478;10.170;2022-12-07T07:24:11;0.83;;;0.83;;
15402;SDS011;7799;53.478;10.170;2022-12-07T07:26:38;0.60;;;0.60;;
15402;SDS011;7799;53.478;10.170;2022-12-07T07:29:04;2.23;;;0.80;;
15402;SDS011;7799;53.478;10.170;2022-12-07T07:31:31;0.80;;;0.80;;
15402;SDS011;7799;53.478;10.170;2022-12-07T07:34:00;0.80;;;0.80;;
15402;SDS011;7799;53.478;10.170;2022-12-07T07:36:27;0.70;;;0.70;;
15402;SDS011;7799;53.478;10.170;2022-12-07T07:38:55;0.90;;;0.80;;
15402;SDS011;7799;53.478;10.170;2022-12-07T07:41:22;0.83;;;0.83;;
15402;SDS011;7799;53.478;10.170;2022-12-07T07:43:48;0.63;;;0.63;;
15402;SDS011;7799;53.478;10.170;2022-12-07T07:46:15;0.70;;;0.70;;
15402;SDS011;7799;53.478;10.170;2022-12-07T07:48:42;0.73;;;0.73;;
15402;SDS011;7799;53.478;10.170;2022-12-07T07:51:09;0.70;;;0.70;;
15402;SDS011;7799;53.478;10.170;2022-12-07T07:53:35;0.60;;;0.60;;
15402;SDS011;7799;53.478;10.170;2022-12-07T07:56:03;0.80;;;0.80;;
15402;SDS011;7799;53.478;10.170;2022-12-07T07:58:30;1.00;;;0.90;;
15402;SDS011;7799;53.478;10.170;2022-12-07T08:01:02;0.70;;;0.70;;
15402;SDS011;7799;53.478;10.170;2022-12-07T08:03:30;1.00;;;0.67;;
15402;SDS011;7799;53.478;10.170;2022-12-07T08:05:56;0.73;;;0.73;;
15402;SDS011;7799;53.478;10.170;2022-12-07T08:08:23;0.70;;;0.60;;
15402;SDS011;7799;53.478;10.170;2022-12-07T08:10:50;1.30;;;0.60;;
15402;SDS011;7799;53.478;10.170;2022-12-07T08:13:18;0.93;;;0.60;;
15402;SDS011;7799;53.478;10.170;2022-12-07T08:15:45;0.50;;;0.50;;
15402;SDS011;7799;53.478;10.170;2022-12-07T08:18:13;0.93;;;0.80;;
15402;SDS011;7799;53.478;10.170;2022-12-07T08:20:41;0.90;;;0.73;;
15402;SDS011;7799;53.478;10.170;2022-12-07T08:23:08;0.70;;;0.70;;
15402;SDS011;7799;53.478;10.170;2022-12-07T08:25:35;0.70;;;0.70;;
15402;SDS011;7799;53.478;10.170;2022-12-07T08:28:02;0.60;;;0.60;;
15402;SDS011;7799;53.478;10.170;2022-12-07T08:30:30;0.80;;;0.60;;
15402;SDS011;7799;53.478;10.170;2022-12-07T08:32:57;1.33;;;0.57;;
15402;SDS011;7799;53.478;10.170;2022-12-07T08:35:24;0.60;;;0.60;;
15402;SDS011;7799;53.478;10.170;2022-12-07T08:37:51;0.77;;;0.77;;
15402;SDS011;7799;53.478;10.170;2022-12-07T08:40:18;0.80;;;0.70;;
15402;SDS011;7799;53.478;10.170;2022-12-07T08:42:48;0.60;;;0.60;;
15402;SDS011;7799;53.478;10.170;2022-12-07T08:45:15;0.60;;;0.60;;
15402;SDS011;7799;53.478;10.170;2022-12-07T08:47:45;0.70;;;0.70;;
15402;SDS011;7799;53.478;10.170;2022-12-07T08:50:13;0.60;;;0.60;;
15402;SDS011;7799;53.478;10.170;2022-12-07T08:52:40;1.00;;;0.70;;
15402;SDS011;7799;53.478;10.170;2022-12-07T08:55:08;0.70;;;0.70;;
15402;SDS011;7799;53.478;10.170;2022-12-07T08:57:36;0.70;;;0.70;;
15402;SDS011;7799;53.478;10.170;2022-12-07T09:00:03;0.80;;;0.80;;
15402;SDS011;7799;53.478;10.170;2022-12-07T09:02:31;0.80;;;0.80;;
15402;SDS011;7799;53.478;10.170;2022-12-07T09:04:59;1.60;;;1.10;;
15402;SDS011;7799;53.478;10.170;2022-12-07T09:07:26;0.90;;;0.90;;
15402;SDS011;7799;53.478;10.170;2022-12-07T09:09:53;1.53;;;0.70;;
15402;SDS011;7799;53.478;10.170;2022-12-07T09:12:21;1.10;;;0.70;;
15402;SDS011;7799;53.478;10.170;2022-12-07T09:14:47;0.70;;;0.70;;
15402;SDS011;7799;53.478;10.170;2022-12-07T09:17:14;0.93;;;0.80;;
15402;SDS011;7799;53.478;10.170;2022-12-07T09:19:41;0.80;;;0.80;;
15402;SDS011;7799;53.478;10.170;2022-12-07T09:22:09;1.00;;;1.00;;
15402;SDS011;7799;53.478;10.170;2022-12-07T09:24:36;0.80;;;0.80;;
15402;SDS011;7799;53.478;10.170;2022-12-07T09:27:03;0.80;;;0.80;;
15402;SDS011;7799;53.478;10.170;2022-12-07T09:29:29;1.20;;;0.93;;
15402;SDS011;7799;53.478;10.170;2022-12-07T09:31:56;0.70;;;0.70;;
15402;SDS011;7799;53.478;10.170;2022-12-07T09:34:23;0.80;;;0.80;;
15402;SDS011;7799;53.478;10.170;2022-12-07T09:36:51;1.27;;;1.13;;
15402;SDS011;7799;53.478;10.170;2022-12-07T09:39:19;1.30;;;1.20;;
15402;SDS011;7799;53.478;10.170;2022-12-07T09:41:46;1.80;;;1.00;;
15402;SDS011;7799;53.478;10.170;2022-12-07T09:44:13;0.90;;;0.90;;
15402;SDS011;7799;53.478;10.170;2022-12-07T09:46:41;1.00;;;0.90;;
15402;SDS011;7799;53.478;10.170;2022-12-07T09:49:10;1.20;;;1.07;;
15402;SDS011;7799;53.478;10.170;2022-12-07T09:51:38;1.27;;;1.17;;
15402;SDS011;7799;53.478;10.170;2022-12-07T09:54:05;0.80;;;0.80;;
15402;SDS011;7799;53.478;10.170;2022-12-07T09:56:33;1.30;;;1.20;;
15402;SDS011;7799;53.478;10.170;2022-12-07T09:59:01;1.77;;;1.10;;
15402;SDS011;7799;53.478;10.170;2022-12-07T10:01:30;1.20;;;1.10;;
15402;SDS011;7799;53.478;10.170;2022-12-07T10:03:59;2.00;;;1.10;;
15402;SDS011;7799;53.478;10.170;2022-12-07T10:06:28;1.30;;;1.20;;
15402;SDS011;7799;53.478;10.170;2022-12-07T10:08:55;1.20;;;1.10;;
15402;SDS011;7799;53.478;10.170;2022-12-07T10:11:22;1.90;;;1.03;;
15402;SDS011;7799;53.478;10.170;2022-12-07T10:13:51;0.90;;;0.90;;
15402;SDS011;7799;53.478;10.170;2022-12-07T10:16:29;1.17;;;1.07;;
15402;SDS011;7799;53.478;10.170;2022-12-07T10:19:17;0.80;;;0.80;;
15402;SDS011;7799;53.478;10.170;2022-12-07T10:21:58;1.40;;;1.30;;
15402;SDS011;7799;53.478;10.170;2022-12-07T10:24:27;1.50;;;1.40;;
15402;SDS011;7799;53.478;10.170;2022-12-07T10:26:54;1.30;;;1.20;;
15402;SDS011;7799;53.478;10.170;2022-12-07T10:29:23;1.00;;;1.00;;
15402;SDS011;7799;53.478;10.170;2022-12-07T10:31:52;1.37;;;1.00;;
15402;SDS011;7799;53.478;10.170;2022-12-07T10:34:22;0.90;;;0.87;;
15402;SDS011;7799;53.478;10.170;2022-12-07T10:36:50;1.00;;;0.87;;
15402;SDS011;7799;53.478;10.170;2022-12-07T10:39:18;0.77;;;0.77;;
15402;SDS011;7799;53.478;10.170;2022-12-07T10:41:52;1.30;;;0.70;;
15402;SDS011;7799;53.478;10.170;2022-12-07T10:44:22;0.90;;;0.70;;
15402;SDS011;7799;53.478;10.170;2022-12-07T10:46:53;1.10;;;0.80;;
15402;SDS011;7799;53.478;10.170;2022-12-07T10:52:37;0.60;;;0.60;;
15402;SDS011;7799;53.478;10.170;2022-12-07T10:55:26;1.07;;;0.80;;
15402;SDS011;7799;53.478;10.170;2022-12-07T10:58:01;1.00;;;0.73;;
15402;SDS011;7799;53.478;10.170;2022-12-07T11:00:44;0.70;;;0.70;;
15402;SDS011;7799;53.478;10.170;2022-12-07T11:03:23;1.00;;;0.80;;
15402;SDS011;7799;53.478;10.170;2022-12-07T11:05:58;1.03;;;0.80;;
15402;SDS011;7799;53.478;10.170;2022-12-07T11:08:36;0.90;;;0.80;;
15402;SDS011;7799;53.478;10.170;2022-12-07T11:11:09;1.90;;;1.00;;
15402;SDS011;7799;53.478;10.170;2022-12-07T11:13:40;0.90;;;0.90;;
15402;SDS011;7799;53.478;10.170;2022-12-07T11:16:18;4.10;;;1.50;;
15402;SDS011;7799;53.478;10.170;2022-12-07T11:18:59;1.07;;;0.97;;
15402;SDS011;7799;53.478;10.170;2022-12-07T11:21:38;1.40;;;1.27;;
15402;SDS011;7799;53.478;10.170;2022-12-07T11:24:10;1.00;;;1.00;;
15402;SDS011;7799;53.478;10.170;2022-12-07T11:26:44;1.57;;;1.07;;
15402;SDS011;7799;53.478;10.170;2022-12-07T11:29:32;1.07;;;0.97;;
15402;SDS011;7799;53.478;10.170;2022-12-07T11:32:39;1.20;;;1.10;;
15402;SDS011;7799;53.478;10.170;2022-12-07T11:35:15;1.07;;;1.00;;
15402;SDS011;7799;53.478;10.170;2022-12-07T11:37:48;1.20;;;1.10;;
15402;SDS011;7799;53.478;10.170;2022-12-07T11:40:17;1.40;;;1.10;;
15402;SDS011;7799;53.478;10.170;2022-12-07T11:42:49;0.90;;;0.90;;
15402;SDS011;7799;53.478;10.170;2022-12-07T11:45:19;2.23;;;1.00;;
15402;SDS011;7799;53.478;10.170;2022-12-07T11:47:51;1.87;;;0.97;;
15402;SDS011;7799;53.478;10.170;2022-12-07T11:50:25;0.80;;;0.80;;
15402;SDS011;7799;53.478;10.170;2022-12-07T11:52:55;0.90;;;0.90;;
15402;SDS011;7799;53.478;10.170;2022-12-07T11:55:24;1.50;;;1.20;;
15402;SDS011;7799;53.478;10.170;2022-12-07T11:57:56;2.23;;;1.20;;
15402;SDS011;7799;53.478;10.170;2022-12-07T12:00:26;1.00;;;0.90;;
15402;SDS011;7799;53.478;10.170;2022-12-07T12:02:57;1.70;;;1.00;;
15402;SDS011;7799;53.478;10.170;2022-12-07T12:05:27;1.97;;;0.80;;
15402;SDS011;7799;53.478;10.170;2022-12-07T12:07:57;2.00;;;0.90;;
15402;SDS011;7799;53.478;10.170;2022-12-07T12:10:32;1.10;;;1.00;;
15402;SDS011;7799;53.478;10.170;2022-12-07T12:13:14;1.20;;;1.10;;
15402;SDS011;7799;53.478;10.170;2022-12-07T12:16:00;1.57;;;1.07;;
15402;SDS011;7799;53.478;10.170;2022-12-07T12:18:41;1.20;;;1.10;;
15402;SDS011;7799;53.478;10.170;2022-12-07T12:21:18;1.50;;;1.40;;
15402;SDS011;7799;53.478;10.170;2022-12-07T12:23:48;1.57;;;1.33;;
15402;SDS011;7799;53.478;10.170;2022-12-07T12:26:17;1.73;;;1.37;;
15402;SDS011;7799;53.478;10.170;2022-12-07T12:28:51;1.47;;;1.33;;
15402;SDS011;7799;53.478;10.170;2022-12-07T12:31:31;1.83;;;1.40;;
15402;SDS011;7799;53.478;10.170;2022-12-07T12:34:03;1.23;;;1.13;;
15402;SDS011;7799;53.478;10.170;2022-12-07T12:36:44;1.10;;;1.00;;
15402;SDS011;7799;53.478;10.170;2022-12-07T12:39:12;1.07;;;0.90;;
15402;SDS011;7799;53.478;10.170;2022-12-07T12:41:56;0.97;;;0.97;;
15402;SDS011;7799;53.478;10.170;2022-12-07T12:44:39;0.87;;;0.80;;
15402;SDS011;7799;53.478;10.170;2022-12-07T12:47:40;0.90;;;0.90;;
15402;SDS011;7799;53.478;10.170;2022-12-07T12:50:22;1.87;;;0.83;;
15402;SDS011;7799;53.478;10.170;2022-12-07T12:52:58;0.80;;;0.80;;
15402;SDS011;7799;53.478;10.170;2022-12-07T12:58:36;1.53;;;0.90;;
15402;SDS011;7799;53.478;10.170;2022-12-07T13:07:11;2.73;;;1.43;;
15402;SDS011;7799;53.478;10.170;2022-12-07T13:09:38;1.23;;;1.00;;
15402;SDS011;7799;53.478;10.170;2022-12-07T13:12:11;0.80;;;0.80;;
15402;SDS011;7799;53.478;10.170;2022-12-07T13:17:58;1.00;;;1.00;;
15402;SDS011;7799;53.478;10.170;2022-12-07T13:20:48;0.73;;;0.70;;
15402;SDS011;7799;53.478;10.170;2022-12-07T13:23:19;1.00;;;0.83;;
15402;SDS011;7799;53.478;10.170;2022-12-07T13:28:42;1.87;;;1.23;;
15402;SDS011;7799;53.478;10.170;2022-12-07T13:31:18;1.23;;;0.87;;
15402;SDS011;7799;53.478;10.170;2022-12-07T13:33:49;3.50;;;1.10;;
15402;SDS011;7799;53.478;10.170;2022-12-07T13:36:20;1.80;;;1.23;;
15402;SDS011;7799;53.478;10.170;2022-12-07T13:38:53;1.90;;;1.20;;
15402;SDS011;7799;53.478;10.170;2022-12-07T13:41:22;1.93;;;1.20;;
15402;SDS011;7799;53.478;10.170;2022-12-07T13:43:50;1.10;;;1.00;;
15402;SDS011;7799;53.478;10.170;2022-12-07T13:46:20;1.10;;;0.80;;
15402;SDS011;7799;53.478;10.170;2022-12-07T13:48:51;2.37;;;1.20;;
15402;SDS011;7799;53.478;10.170;2022-12-07T13:51:21;1.43;;;0.83;;
15402;SDS011;7799;53.478;10.170;2022-12-07T13:53:49;2.60;;;1.40;;
15402;SDS011;7799;53.478;10.170;2022-12-07T13:56:20;1.30;;;0.87;;
15402;SDS011;7799;53.478;10.170;2022-12-07T13:58:47;0.97;;;0.80;;
15402;SDS011;7799;53.478;10.170;2022-12-07T14:01:14;1.47;;;0.97;;
15402;SDS011;7799;53.478;10.170;2022-12-07T14:03:41;1.40;;;1.23;;
15402;SDS011;7799;53.478;10.170;2022-12-07T14:06:16;2.17;;;1.30;;
15402;SDS011;7799;53.478;10.170;2022-12-07T14:08:45;1.30;;;0.83;;
15402;SDS011;7799;53.478;10.170;2022-12-07T14:11:13;1.40;;;1.30;;
15402;SDS011;7799;53.478;10.170;2022-12-07T14:13:51;1.37;;;0.70;;
15402;SDS011;7799;53.478;10.170;2022-12-07T14:16:24;0.87;;;0.80;;
15402;SDS011;7799;53.478;10.170;2022-12-07T14:18:54;0.70;;;0.60;;
15402;SDS011;7799;53.478;10.170;2022-12-07T14:21:22;0.60;;;0.60;;
15402;SDS011;7799;53.478;10.170;2022-12-07T14:24:04;1.80;;;0.67;;
15402;SDS011;7799;53.478;10.170;2022-12-07T14:26:35;2.20;;;0.90;;
15402;SDS011;7799;53.478;10.170;2022-12-07T14:31:58;0.63;;;0.63;;
15402;SDS011;7799;53.478;10.170;2022-12-07T14:34:28;0.67;;;0.67;;
15402;SDS011;7799;53.478;10.170;2022-12-07T14:36:54;1.10;;;0.70;;
15402;SDS011;7799;53.478;10.170;2022-12-07T14:39:21;0.67;;;0.60;;
15402;SDS011;7799;53.478;10.170;2022-12-07T14:41:48;0.83;;;0.60;;
15402;SDS011;7799;53.478;10.170;2022-12-07T14:44:18;1.03;;;0.60;;
15402;SDS011;7799;53.478;10.170;2022-12-07T14:46:47;0.70;;;0.70;;
15402;SDS011;7799;53.478;10.170;2022-12-07T14:49:14;0.70;;;0.70;;
15402;SDS011;7799;53.478;10.170;2022-12-07T14:51:40;0.93;;;0.60;;
15402;SDS011;7799;53.478;10.170;2022-12-07T14:54:11;0.70;;;0.70;;
15402;SDS011;7799;53.478;10.170;2022-12-07T14:56:41;0.73;;;0.63;;
15402;SDS011;7799;53.478;10.170;2022-12-07T14:59:09;1.00;;;0.60;;
15402;SDS011;7799;53.478;10.170;2022-12-07T15:01:36;1.17;;;0.70;;
15402;SDS011;7799;53.478;10.170;2022-12-07T15:04:04;1.03;;;0.70;;
15402;SDS011;7799;53.478;10.170;2022-12-07T15:06:32;0.50;;;0.50;;
15402;SDS011;7799;53.478;10.170;2022-12-07T15:08:59;0.60;;;0.60;;
15402;SDS011;7799;53.478;10.170;2022-12-07T15:11:25;0.60;;;0.60;;
15402;SDS011;7799;53.478;10.170;2022-12-07T15:13:52;0.60;;;0.60;;
15402;SDS011;7799;53.478;10.170;2022-12-07T15:16:34;0.50;;;0.50;;
15402;SDS011;7799;53.478;10.170;2022-12-07T15:19:01;0.43;;;0.43;;
15402;SDS011;7799;53.478;10.170;2022-12-07T15:21:29;0.60;;;0.50;;
15402;SDS011;7799;53.478;10.170;2022-12-07T15:23:56;0.43;;;0.43;;
15402;SDS011;7799;53.478;10.170;2022-12-07T15:26:23;0.40;;;0.40;;
15402;SDS011;7799;53.478;10.170;2022-12-07T15:28:49;0.63;;;0.50;;
15402;SDS011;7799;53.478;10.170;2022-12-07T15:31:16;0.70;;;0.40;;
15402;SDS011;7799;53.478;10.170;2022-12-07T15:33:43;0.40;;;0.40;;
15402;SDS011;7799;53.478;10.170;2022-12-07T15:36:14;0.40;;;0.40;;
15402;SDS011;7799;53.478;10.170;2022-12-07T15:38:46;0.63;;;0.43;;
15402;SDS011;7799;53.478;10.170;2022-12-07T15:41:13;0.33;;;0.33;;
15402;SDS011;7799;53.478;10.170;2022-12-07T15:43:40;0.30;;;0.30;;
15402;SDS011;7799;53.478;10.170;2022-12-07T15:46:28;0.87;;;0.40;;
15402;SDS011;7799;53.478;10.170;2022-12-07T15:48:56;0.40;;;0.40;;
15402;SDS011;7799;53.478;10.170;2022-12-07T15:51:22;0.50;;;0.50;;
15402;SDS011;7799;53.478;10.170;2022-12-07T15:53:52;0.60;;;0.60;;
15402;SDS011;7799;53.478;10.170;2022-12-07T15:56:19;0.43;;;0.43;;
15402;SDS011;7799;53.478;10.170;2022-12-07T15:58:45;0.73;;;0.60;;
15402;SDS011;7799;53.478;10.170;2022-12-07T16:01:13;0.53;;;0.50;;
15402;SDS011;7799;53.478;10.170;2022-12-07T16:03:41;0.77;;;0.77;;
15402;SDS011;7799;53.478;10.170;2022-12-07T16:06:08;0.70;;;0.70;;
15402;SDS011;7799;53.478;10.170;2022-12-07T16:08:34;0.70;;;0.70;;
15402;SDS011;7799;53.478;10.170;2022-12-07T16:11:05;0.60;;;0.60;;
15402;SDS011;7799;53.478;10.170;2022-12-07T16:13:33;1.00;;;0.70;;
15402;SDS011;7799;53.478;10.170;2022-12-07T16:16:01;0.50;;;0.50;;
15402;SDS011;7799;53.478;10.170;2022-12-07T16:18:29;0.97;;;0.70;;
15402;SDS011;7799;53.478;10.170;2022-12-07T16:20:56;0.67;;;0.67;;
15402;SDS011;7799;53.478;10.170;2022-12-07T16:23:22;0.90;;;0.80;;
15402;SDS011;7799;53.478;10.170;2022-12-07T16:25:49;0.90;;;0.80;;
15402;SDS011;7799;53.478;10.170;2022-12-07T16:28:17;0.60;;;0.60;;
15402;SDS011;7799;53.478;10.170;2022-12-07T16:30:44;0.70;;;0.70;;
15402;SDS011;7799;53.478;10.170;2022-12-07T16:33:11;0.60;;;0.60;;
15402;SDS011;7799;53.478;10.170;2022-12-07T16:35:38;1.80;;;0.50;;
15402;SDS011;7799;53.478;10.170;2022-12-07T16:38:07;0.30;;;0.30;;
15402;SDS011;7799;53.478;10.170;2022-12-07T16:40:34;0.60;;;0.60;;
15402;SDS011;7799;53.478;10.170;2022-12-07T16:43:01;0.50;;;0.50;;
15402;SDS011;7799;53.478;10.170;2022-12-07T16:45:29;0.80;;;0.80;;
15402;SDS011;7799;53.478;10.170;2022-12-07T16:47:56;0.60;;;0.60;;
15402;SDS011;7799;53.478;10.170;2022-12-07T16:50:22;0.50;;;0.50;;
15402;SDS011;7799;53.478;10.170;2022-12-07T16:52:49;0.50;;;0.50;;
15402;SDS011;7799;53.478;10.170;2022-12-07T16:55:16;0.50;;;0.50;;
15402;SDS011;7799;53.478;10.170;2022-12-07T16:57:43;0.60;;;0.60;;
15402;SDS011;7799;53.478;10.170;2022-12-07T17:00:10;0.80;;;0.80;;
15402;SDS011;7799;53.478;10.170;2022-12-07T17:02:38;0.70;;;0.70;;
15402;SDS011;7799;53.478;10.170;2022-12-07T17:05:05;1.00;;;0.83;;
15402;SDS011;7799;53.478;10.170;2022-12-07T17:07:33;0.57;;;0.57;;
15402;SDS011;7799;53.478;10.170;2022-12-07T17:10:00;0.60;;;0.60;;
15402;SDS011;7799;53.478;10.170;2022-12-07T17:12:27;0.43;;;0.43;;
15402;SDS011;7799;53.478;10.170;2022-12-07T17:14:53;0.50;;;0.50;;
15402;SDS011;7799;53.478;10.170;2022-12-07T17:17:39;0.57;;;0.57;;
15402;SDS011;7799;53.478;10.170;2022-12-07T17:20:06;0.30;;;0.30;;
15402;SDS011;7799;53.478;10.170;2022-12-07T17:22:33;0.47;;;0.47;;
15402;SDS011;7799;53.478;10.170;2022-12-07T17:25:00;0.50;;;0.37;;
15402;SDS011;7799;53.478;10.170;2022-12-07T17:27:27;0.50;;;0.50;;
15402;SDS011;7799;53.478;10.170;2022-12-07T17:29:54;0.40;;;0.40;;
15402;SDS011;7799;53.478;10.170;2022-12-07T17:32:21;0.63;;;0.50;;
15402;SDS011;7799;53.478;10.170;2022-12-07T17:34:49;0.50;;;0.50;;
15402;SDS011;7799;53.478;10.170;2022-12-07T17:37:16;0.87;;;0.43;;
15402;SDS011;7799;53.478;10.170;2022-12-07T17:39:42;0.43;;;0.43;;
15402;SDS011;7799;53.478;10.170;2022-12-07T17:42:09;0.63;;;0.50;;
15402;SDS011;7799;53.478;10.170;2022-12-07T17:44:53;0.40;;;0.40;;
15402;SDS011;7799;53.478;10.170;2022-12-07T17:47:20;0.40;;;0.40;;
15402;SDS011;7799;53.478;10.170;2022-12-07T17:49:48;0.77;;;0.70;;
15402;SDS011;7799;53.478;10.170;2022-12-07T17:52:15;0.97;;;0.90;;
15402;SDS011;7799;53.478;10.170;2022-12-07T17:55:00;0.60;;;0.60;;
15402;SDS011;7799;53.478;10.170;2022-12-07T17:57:26;0.93;;;0.60;;
15402;SDS011;7799;53.478;10.170;2022-12-07T17:59:53;0.60;;;0.60;;
15402;SDS011;7799;53.478;10.170;2022-12-07T18:02:21;0.67;;;0.67;;
15402;SDS011;7799;53.478;10.170;2022-12-07T18:04:49;0.60;;;0.60;;
15402;SDS011;7799;53.478;10.170;2022-12-07T18:07:17;0.60;;;0.60;;
15402;SDS011;7799;53.478;10.170;2022-12-07T18:09:44;0.60;;;0.60;;
15402;SDS011;7799;53.478;10.170;2022-12-07T18:12:10;0.53;;;0.53;;
15402;SDS011;7799;53.478;10.170;2022-12-07T18:14:37;0.60;;;0.60;;
15402;SDS011;7799;53.478;10.170;2022-12-07T18:17:04;0.70;;;0.70;;
15402;SDS011;7799;53.478;10.170;2022-12-07T18:19:31;0.53;;;0.50;;
15402;SDS011;7799;53.478;10.170;2022-12-07T18:22:02;0.53;;;0.53;;
15402;SDS011;7799;53.478;10.170;2022-12-07T18:24:29;0.43;;;0.43;;
15402;SDS011;7799;53.478;10.170;2022-12-07T18:26:56;0.50;;;0.50;;
15402;SDS011;7799;53.478;10.170;2022-12-07T18:29:23;0.53;;;0.50;;
15402;SDS011;7799;53.478;10.170;2022-12-07T18:31:50;0.70;;;0.60;;
15402;SDS011;7799;53.478;10.170;2022-12-07T18:34:17;0.60;;;0.60;;
15402;SDS011;7799;53.478;10.170;2022-12-07T18:36:45;0.67;;;0.63;;
15402;SDS011;7799;53.478;10.170;2022-12-07T18:39:15;0.60;;;0.60;;
15402;SDS011;7799;53.478;10.170;2022-12-07T18:41:43;0.50;;;0.50;;
15402;SDS011;7799;53.478;10.170;2022-12-07T18:44:10;0.70;;;0.70;;
15402;SDS011;7799;53.478;10.170;2022-12-07T18:46:38;2.00;;;0.80;;
15402;SDS011;7799;53.478;10.170;2022-12-07T18:49:06;0.77;;;0.77;;
15402;SDS011;7799;53.478;10.170;2022-12-07T18:51:33;1.60;;;1.00;;
15402;SDS011;7799;53.478;10.170;2022-12-07T18:54:00;0.77;;;0.77;;
15402;SDS011;7799;53.478;10.170;2022-12-07T18:56:30;0.80;;;0.80;;
15402;SDS011;7799;53.478;10.170;2022-12-07T18:58:57;0.60;;;0.60;;
15402;SDS011;7799;53.478;10.170;2022-12-07T19:01:43;0.60;;;0.60;;
15402;SDS011;7799;53.478;10.170;2022-12-07T19:04:11;0.80;;;0.70;;
15402;SDS011;7799;53.478;10.170;2022-12-07T19:06:39;0.73;;;0.73;;
15402;SDS011;7799;53.478;10.170;2022-12-07T19:09:06;1.20;;;1.10;;
15402;SDS011;7799;53.478;10.170;2022-12-07T19:11:35;1.23;;;1.13;;
15402;SDS011;7799;53.478;10.170;2022-12-07T19:14:18;1.10;;;1.10;;
15402;SDS011;7799;53.478;10.170;2022-12-07T19:16:47;1.03;;;0.93;;
15402;SDS011;7799;53.478;10.170;2022-12-07T19:19:15;1.60;;;1.10;;
15402;SDS011;7799;53.478;10.170;2022-12-07T19:21:43;1.07;;;1.03;;
15402;SDS011;7799;53.478;10.170;2022-12-07T19:24:10;1.40;;;1.30;;